sensor_id;sensor_type;location;lat;lon;timestamp;temperature;humidity
3998;DHT22;61314;53.444;9.902;2022-08-19T00:01:23;18.90;99.90
3998;DHT22;61314;53.444;9.902;2022-08-19T00:04:01;18.90;99.90
3998;DHT22;61314;53.444;9.902;2022-08-19T00:06:29;18.90;99.90
3998;DHT22;61314;53.444;9.902;2022-08-19T00:08:58;18.80;99.90
3998;DHT22;61314;53.444;9.902;2022-08-19T00:11:26;18.80;99.90
3998;DHT22;61314;53.444;9.902;2022-08-19T00:13:55;18.80;99.90
3998;DHT22;61314;53.444;9.902;2022-08-19T00:16:24;18.70;99.90
3998;DHT22;61314;53.444;9.902;2022-08-19T00:18:53;18.70;99.90
3998;DHT22;61314;53.444;9.902;2022-08-19T00:21:22;18.70;99.90
3998;DHT22;61314;53.444;9.902;2022-08-19T00:26:16;18.80;99.90
3998;DHT22;61314;53.444;9.902;2022-08-19T00:28:43;18.70;99.90
3998;DHT22;61314;53.444;9.902;2022-08-19T00:33:37;18.60;99.90
3998;DHT22;61314;53.444;9.902;2022-08-19T00:36:06;18.60;99.90
3998;DHT22;61314;53.444;9.902;2022-08-19T00:38:34;18.70;99.90
3998;DHT22;61314;53.444;9.902;2022-08-19T00:41:04;18.60;99.90
3998;DHT22;61314;53.444;9.902;2022-08-19T00:43:31;18.60;99.90
3998;DHT22;61314;53.444;9.902;2022-08-19T00:45:58;18.70;99.90
3998;DHT22;61314;53.444;9.902;2022-08-19T00:48:25;18.60;99.90
3998;DHT22;61314;53.444;9.902;2022-08-19T00:50:52;18.50;99.90
3998;DHT22;61314;53.444;9.902;2022-08-19T00:53:23;18.60;99.90
3998;DHT22;61314;53.444;9.902;2022-08-19T00:55:52;18.50;99.90
3998;DHT22;61314;53.444;9.902;2022-08-19T00:58:23;18.50;99.90
3998;DHT22;61314;53.444;9.902;2022-08-19T01:00:50;18.50;99.90
3998;DHT22;61314;53.444;9.902;2022-08-19T01:08:15;18.50;99.90
3998;DHT22;61314;53.444;9.902;2022-08-19T01:10:46;18.50;99.90
3998;DHT22;61314;53.444;9.902;2022-08-19T01:13:21;18.50;99.90
3998;DHT22;61314;53.444;9.902;2022-08-19T01:15:52;18.40;99.90
3998;DHT22;61314;53.444;9.902;2022-08-19T01:18:20;18.50;99.90
3998;DHT22;61314;53.444;9.902;2022-08-19T01:20:48;18.50;99.90
3998;DHT22;61314;53.444;9.902;2022-08-19T01:23:15;18.50;99.90
3998;DHT22;61314;53.444;9.902;2022-08-19T01:25:47;18.50;99.90
3998;DHT22;61314;53.444;9.902;2022-08-19T01:28:21;18.50;99.90
3998;DHT22;61314;53.444;9.902;2022-08-19T01:30:59;18.50;99.90
3998;DHT22;61314;53.444;9.902;2022-08-19T01:33:33;18.50;99.90
3998;DHT22;61314;53.444;9.902;2022-08-19T01:36:22;18.50;99.90
3998;DHT22;61314;53.444;9.902;2022-08-19T01:38:49;18.50;99.90
3998;DHT22;61314;53.444;9.902;2022-08-19T01:41:17;18.50;99.90
3998;DHT22;61314;53.444;9.902;2022-08-19T01:43:44;18.50;99.90
3998;DHT22;61314;53.444;9.902;2022-08-19T01:46:31;18.50;99.90
3998;DHT22;61314;53.444;9.902;2022-08-19T01:48:59;18.50;99.90
3998;DHT22;61314;53.444;9.902;2022-08-19T01:51:26;18.50;99.90
3998;DHT22;61314;53.444;9.902;2022-08-19T01:53:54;18.50;99.90
3998;DHT22;61314;53.444;9.902;2022-08-19T01:56:22;18.50;99.90
3998;DHT22;61314;53.444;9.902;2022-08-19T01:58:53;18.50;99.90
3998;DHT22;61314;53.444;9.902;2022-08-19T02:01:20;18.50;99.90
3998;DHT22;61314;53.444;9.902;2022-08-19T02:03:47;18.50;99.90
3998;DHT22;61314;53.444;9.902;2022-08-19T02:06:13;18.50;99.90
3998;DHT22;61314;53.444;9.902;2022-08-19T02:08:40;18.50;99.90
3998;DHT22;61314;53.444;9.902;2022-08-19T02:11:07;18.50;99.90
3998;DHT22;61314;53.444;9.902;2022-08-19T02:13:34;18.50;99.90
3998;DHT22;61314;53.444;9.902;2022-08-19T02:16:01;18.50;99.90
3998;DHT22;61314;53.444;9.902;2022-08-19T02:18:30;18.40;99.90
3998;DHT22;61314;53.444;9.902;2022-08-19T02:20:56;18.40;99.90
3998;DHT22;61314;53.444;9.902;2022-08-19T02:23:23;18.40;99.90
3998;DHT22;61314;53.444;9.902;2022-08-19T02:25:51;18.40;99.90
3998;DHT22;61314;53.444;9.902;2022-08-19T02:28:17;18.40;99.90
3998;DHT22;61314;53.444;9.902;2022-08-19T02:30:45;18.40;99.90
3998;DHT22;61314;53.444;9.902;2022-08-19T02:33:12;18.40;99.90
3998;DHT22;61314;53.444;9.902;2022-08-19T02:35:46;18.40;99.90
3998;DHT22;61314;53.444;9.902;2022-08-19T02:38:13;18.40;99.90
3998;DHT22;61314;53.444;9.902;2022-08-19T02:40:59;18.30;99.90
3998;DHT22;61314;53.444;9.902;2022-08-19T02:43:28;18.40;99.90
3998;DHT22;61314;53.444;9.902;2022-08-19T02:46:00;18.40;99.90
3998;DHT22;61314;53.444;9.902;2022-08-19T02:48:27;18.40;99.90
3998;DHT22;61314;53.444;9.902;2022-08-19T02:50:53;18.40;99.90
3998;DHT22;61314;53.444;9.902;2022-08-19T02:53:26;18.40;99.90
3998;DHT22;61314;53.444;9.902;2022-08-19T02:55:53;18.30;99.90
3998;DHT22;61314;53.444;9.902;2022-08-19T02:58:21;18.30;99.90
3998;DHT22;61314;53.444;9.902;2022-08-19T03:00:52;18.30;99.90
3998;DHT22;61314;53.444;9.902;2022-08-19T03:03:19;18.30;99.90
3998;DHT22;61314;53.444;9.902;2022-08-19T03:05:47;18.30;99.90
3998;DHT22;61314;53.444;9.902;2022-08-19T03:08:23;18.30;99.90
3998;DHT22;61314;53.444;9.902;2022-08-19T03:10:50;18.30;99.90
3998;DHT22;61314;53.444;9.902;2022-08-19T03:13:18;18.30;99.90
3998;DHT22;61314;53.444;9.902;2022-08-19T03:15:46;18.30;99.90
3998;DHT22;61314;53.444;9.902;2022-08-19T03:18:14;18.30;99.90
3998;DHT22;61314;53.444;9.902;2022-08-19T03:20:45;18.30;99.90
3998;DHT22;61314;53.444;9.902;2022-08-19T03:23:14;18.20;99.90
3998;DHT22;61314;53.444;9.902;2022-08-19T03:25:42;18.30;99.90
3998;DHT22;61314;53.444;9.902;2022-08-19T03:28:14;18.30;99.90
3998;DHT22;61314;53.444;9.902;2022-08-19T03:30:42;18.30;99.90
3998;DHT22;61314;53.444;9.902;2022-08-19T03:33:10;18.20;99.90
3998;DHT22;61314;53.444;9.902;2022-08-19T03:36:13;18.20;99.90
3998;DHT22;61314;53.444;9.902;2022-08-19T03:38:45;18.30;99.90
3998;DHT22;61314;53.444;9.902;2022-08-19T03:41:15;18.20;99.90
3998;DHT22;61314;53.444;9.902;2022-08-19T03:43:42;18.20;99.90
3998;DHT22;61314;53.444;9.902;2022-08-19T03:46:17;18.20;99.90
3998;DHT22;61314;53.444;9.902;2022-08-19T03:48:47;18.20;99.90
3998;DHT22;61314;53.444;9.902;2022-08-19T04:04:00;18.20;99.90
3998;DHT22;61314;53.444;9.902;2022-08-19T04:06:32;18.10;99.90
3998;DHT22;61314;53.444;9.902;2022-08-19T04:09:00;18.20;99.90
3998;DHT22;61314;53.444;9.902;2022-08-19T09:21:58;18.10;99.90
3998;DHT22;61314;53.444;9.902;2022-08-19T11:30:12;19.30;99.90
3998;DHT22;61314;53.444;9.902;2022-08-19T11:35:14;21.40;99.90
3998;DHT22;61314;53.444;9.902;2022-08-19T11:37:40;21.70;99.90
3998;DHT22;61314;53.444;9.902;2022-08-19T11:45:26;21.60;99.90
3998;DHT22;61314;53.444;9.902;2022-08-19T11:47:53;21.80;99.90
3998;DHT22;61314;53.444;9.902;2022-08-19T11:52:47;21.80;99.90
3998;DHT22;61314;53.444;9.902;2022-08-19T19:44:48;19.50;99.90
3998;DHT22;61314;53.444;9.902;2022-08-19T19:49:45;19.40;99.90
3998;DHT22;61314;53.444;9.902;2022-08-19T20:12:31;18.90;99.90
3998;DHT22;61314;53.444;9.902;2022-08-19T20:17:25;18.90;99.90
3998;DHT22;61314;53.444;9.902;2022-08-19T21:01:46;18.10;99.90
3998;DHT22;61314;53.444;9.902;2022-08-19T21:04:13;18.00;99.90
3998;DHT22;61314;53.444;9.902;2022-08-19T21:26:21;17.90;99.90
3998;DHT22;61314;53.444;9.902;2022-08-19T21:28:49;17.90;99.90
3998;DHT22;61314;53.444;9.902;2022-08-19T22:00:56;17.70;99.90
3998;DHT22;61314;53.444;9.902;2022-08-19T22:05:51;17.60;99.90
3998;DHT22;61314;53.444;9.902;2022-08-19T22:08:17;17.60;99.90
3998;DHT22;61314;53.444;9.902;2022-08-19T22:10:44;17.50;99.90
3998;DHT22;61314;53.444;9.902;2022-08-19T22:13:12;17.50;99.90
3998;DHT22;61314;53.444;9.902;2022-08-19T22:18:06;17.50;99.90
3998;DHT22;61314;53.444;9.902;2022-08-19T22:23:02;17.40;99.90
3998;DHT22;61314;53.444;9.902;2022-08-19T22:25:35;17.40;99.90
3998;DHT22;61314;53.444;9.902;2022-08-19T22:28:05;17.40;99.90
3998;DHT22;61314;53.444;9.902;2022-08-19T22:30:37;17.40;99.90
3998;DHT22;61314;53.444;9.902;2022-08-19T22:33:09;17.40;99.90
3998;DHT22;61314;53.444;9.902;2022-08-19T22:35:38;17.40;99.90
3998;DHT22;61314;53.444;9.902;2022-08-19T22:38:07;17.40;99.90
3998;DHT22;61314;53.444;9.902;2022-08-19T22:40:36;17.40;99.90
3998;DHT22;61314;53.444;9.902;2022-08-19T22:43:08;17.40;99.90
3998;DHT22;61314;53.444;9.902;2022-08-19T22:45:35;17.40;99.90
3998;DHT22;61314;53.444;9.902;2022-08-19T22:48:04;17.40;99.90
3998;DHT22;61314;53.444;9.902;2022-08-19T22:50:38;17.50;99.90
3998;DHT22;61314;53.444;9.902;2022-08-19T22:53:07;17.50;99.90
3998;DHT22;61314;53.444;9.902;2022-08-19T22:55:35;17.50;99.90
3998;DHT22;61314;53.444;9.902;2022-08-19T22:58:03;17.50;99.90
3998;DHT22;61314;53.444;9.902;2022-08-19T23:00:30;17.50;99.90
3998;DHT22;61314;53.444;9.902;2022-08-19T23:02:57;17.60;99.90
3998;DHT22;61314;53.444;9.902;2022-08-19T23:05:25;17.60;99.90
3998;DHT22;61314;53.444;9.902;2022-08-19T23:07:55;17.60;99.90
3998;DHT22;61314;53.444;9.902;2022-08-19T23:10:23;17.60;99.90
3998;DHT22;61314;53.444;9.902;2022-08-19T23:12:55;17.60;99.90
3998;DHT22;61314;53.444;9.902;2022-08-19T23:15:25;17.60;99.90
3998;DHT22;61314;53.444;9.902;2022-08-19T23:17:54;17.70;99.90
3998;DHT22;61314;53.444;9.902;2022-08-19T23:20:24;17.60;99.90
3998;DHT22;61314;53.444;9.902;2022-08-19T23:22:54;17.70;99.90
3998;DHT22;61314;53.444;9.902;2022-08-19T23:25:24;17.70;99.90
3998;DHT22;61314;53.444;9.902;2022-08-19T23:27:51;17.70;99.90
3998;DHT22;61314;53.444;9.902;2022-08-19T23:30:39;17.70;99.90
3998;DHT22;61314;53.444;9.902;2022-08-19T23:33:16;17.80;99.90
3998;DHT22;61314;53.444;9.902;2022-08-19T23:35:47;17.80;99.90
3998;DHT22;61314;53.444;9.902;2022-08-19T23:38:14;17.80;99.90
3998;DHT22;61314;53.444;9.902;2022-08-19T23:40:40;17.80;99.90
3998;DHT22;61314;53.444;9.902;2022-08-19T23:43:07;17.80;99.90
3998;DHT22;61314;53.444;9.902;2022-08-19T23:45:40;17.80;99.90
3998;DHT22;61314;53.444;9.902;2022-08-19T23:48:17;17.80;99.90
3998;DHT22;61314;53.444;9.902;2022-08-19T23:50:44;17.80;99.90
3998;DHT22;61314;53.444;9.902;2022-08-19T23:53:11;17.80;99.90
3998;DHT22;61314;53.444;9.902;2022-08-19T23:55:41;17.80;99.90
3998;DHT22;61314;53.444;9.902;2022-08-19T23:58:09;17.80;99.90
